Latest Weather Observations for Narrabri

IDN60801

Issued at 2:33 am EST Saturday 29 August 2015 (issued every 30 minutes, with the page automatically refreshed every 10 minutes)

About weather observations | Map of weather stations | Latest weather observations for NSW | Other Formats
Station Details ID: 054038 Name: NARRABRI AIRPORT AWS Lat: -30.32 Lon: 149.83 Height: 229.02 m
Data from the previous 72 hours. | See also: Recent months at Narrabri
Date/Time
EST
Temp
°C
App
Temp
°C
Dew
Point
Rel
Hum
%
Delta-T
°C
Wind Press
QNH
hPa
Press
MSL
hPa
Rain
since 9 am
mm
Dir
 
Spd
km/h
Gust
km/h
Spd
kts
Gust
kts
29/02:30am 4.5 2.9 2.7 88 0.7 CALM 0 7 0 4 1023.4 1023.5 0.0
29/02:00am 5.1 3.7 3.3 88 0.8 CALM 0 0 0 0 1023.3 1023.3 0.0
29/01:30am 4.8 1.6 3.0 88 0.7 ENE 9 11 5 6 1024.0 1024.1 0.0
29/01:00am 4.6 3.0 2.5 86 0.9 CALM 0 0 0 0 1024.2 1024.3 0.0
29/12:30am 5.4 4.0 3.3 86 0.9 CALM 0 0 0 0 1024.1 1024.2 0.0
29/12:00am 5.7 3.1 3.2 84 1.0 SSW 6 7 3 4 1024.2 1024.3 0.0
 
Date/Time
EST
Temp
°C
App
Temp
°C
Dew
Point
Rel
Hum
%
Delta-T
°C
Wind Press
QNH
hPa
Press
MSL
hPa
Rain
since 9 am
mm
Dir
 
Spd
km/h
Gust
km/h
Spd
kts
Gust
kts
28/11:30pm 6.6 5.2 3.4 80 1.4 CALM 0 0 0 0 1024.3 1024.4 0.0
28/11:00pm 8.6 4.6 4.8 77 1.7 E 15 19 8 10 1024.2 1024.3 0.0
28/10:30pm 7.9 4.2 4.5 79 1.5 E 13 15 7 8 1024.3 1024.4 0.0
28/10:00pm 7.9 5.3 4.3 78 1.6 E 7 15 4 8 1024.5 1024.6 0.0
28/09:30pm 9.2 6.3 4.8 74 2.0 ESE 9 13 5 7 1024.5 1024.6 0.0
28/09:00pm 7.8 4.9 4.4 79 1.5 E 9 13 5 7 1024.4 1024.5 0.0
28/08:30pm 9.0 6.4 4.2 72 2.1 SE 7 9 4 5 1024.0 1024.1 0.0
28/08:00pm 8.4 6.0 4.2 75 1.8 SSE 6 7 3 4 1023.8 1023.9 0.0
28/07:30pm 10.3 7.8 4.7 68 2.5 SSW 7 9 4 5 1023.3 1023.3 0.0
28/07:00pm 10.3 8.4 4.7 68 2.5 SW 4 7 2 4 1023.1 1023.1 0.0
28/06:30pm 11.8 9.3 4.8 62 3.2 SSW 7 9 4 5 1022.6 1022.6 0.0
28/06:00pm 12.9 9.6 4.6 57 3.8 SW 11 13 6 7 1022.3 1022.3 0.0
28/05:30pm 14.1 10.0 4.4 52 4.5 SW 15 17 8 9 1022.0 1022.0 0.0
28/05:00pm 16.7 12.6 2.3 38 6.5 SW 13 17 7 9 1021.9 1021.9 0.0
28/04:30pm 17.2 12.9 1.2 34 7.2 SW 13 17 7 9 1021.6 1021.6 0.0
28/04:00pm 17.5 12.4 0.6 32 7.5 WSW 17 24 9 13 1021.4 1021.4 0.0
28/03:30pm 17.7 12.8 2.1 35 7.1 SW 17 24 9 13 1021.4 1021.4 0.0
28/03:00pm 18.0 15.1 2.7 36 7.1 WNW 7 13 4 7 1021.6 1021.6 0.0
28/02:52pm 17.7 15.1 4.3 41 6.4 WNW 7 11 4 6 1021.7 1021.7 0.0
28/02:41pm 16.6 13.7 4.6 45 5.7 WNW 9 13 5 7 1021.8 1021.8 0.0
28/02:30pm 17.4 14.1 4.4 42 6.2 WNW 11 17 6 9 1022.0 1022.0 0.0
28/02:00pm 17.2 14.1 5.5 46 5.7 WNW 11 19 6 10 1022.3 1022.3 0.0
28/01:30pm 16.0 13.4 6.2 52 4.8 NNE 9 17 5 9 1022.5 1022.5 0.0
28/01:00pm 15.9 13.9 7.1 56 4.4 NNW 7 11 4 6 1023.0 1023.0 0.0
28/12:30pm 15.6 13.3 7.6 59 4.0 WSW 9 17 5 9 1023.5 1023.6 0.0
28/12:00pm 14.9 13.2 8.4 65 3.3 WNW 7 15 4 8 1024.1 1024.2 0.0
28/11:30am 13.9 11.7 7.7 66 3.1 W 9 15 5 8 1024.6 1024.7 0.0
28/11:00am 12.6 11.0 8.7 77 2.0 W 7 13 4 7 1025.0 1025.1 0.0
28/10:48am 12.2 10.7 9.2 82 1.5 WSW 7 11 4 6 1025.1 1025.2 0.0
28/10:30am 11.8 10.1 9.9 88 1.0 WNW 9 13 5 7 1025.3 1025.4 0.0
28/10:00am 10.4 8.9 9.0 91 0.7 NW 7 15 4 8 1025.6 1025.6 0.0
28/09:30am 9.7 7.6 8.3 91 0.7 NW 9 11 5 6 1025.6 1025.6 0.0
28/09:19am 9.7 7.7 8.5 92 0.6 NW 9 13 5 7 1025.5 1025.5 0.0
28/09:00am 9.6 8.9 8.4 92 0.6 W 2 7 1 4 1025.5 1025.5 1.8
28/08:30am 9.1 7.3 7.9 92 0.6 NNW 7 11 4 6 1025.1 1025.2 1.8
28/08:21am 9.0 6.8 7.8 92 0.6 NNW 9 11 5 6 1025.0 1025.1 1.8
28/08:00am 8.9 7.0 7.7 92 0.6 N 7 11 4 6 1024.9 1025.0 1.8
28/07:30am 8.7 6.8 7.5 92 0.6 N 7 9 4 5 1024.6 1024.7 1.8
28/07:00am 8.8 6.9 7.4 91 0.7 NNE 7 11 4 6 1024.1 1024.2 1.8
28/06:30am 8.5 7.1 7.3 92 0.6 E 4 7 2 4 1023.7 1023.8 1.8
28/06:00am 8.1 5.7 6.9 92 0.6 ENE 9 11 5 6 1023.5 1023.6 1.8
28/05:30am 6.8 5.0 5.4 91 0.6 SE 4 7 2 4 1023.1 1023.1 1.8
28/05:00am 7.5 6.6 6.1 91 0.6 CALM 0 0 0 0 1022.9 1022.9 1.8
28/04:44am 7.5 6.6 6.1 91 0.6 CALM 0 4 0 2 1022.7 1022.7 1.8
28/04:38am 8.0 6.5 6.6 91 0.7 N 4 6 2 3 1022.6 1022.6 1.8
28/04:35am 8.0 6.1 6.6 91 0.7 N 6 7 3 4 1022.6 1022.6 1.8
28/04:30am 8.3 6.4 6.9 91 0.7 N 6 7 3 4 1022.6 1022.6 1.8
28/04:28am 8.4 6.6 7.0 91 0.7 N 6 7 3 4 1022.5 1022.5 1.8
28/04:00am 9.2 7.6 7.8 91 0.7 NNE 6 7 3 4 1022.5 1022.5 1.8
28/03:30am 9.4 7.8 8.0 91 0.7 NNE 6 7 3 4 1022.4 1022.4 1.8
28/03:19am 9.3 7.7 7.9 91 0.7 NNE 6 9 3 5 1022.5 1022.5 1.8
28/03:00am 8.8 7.1 7.4 91 0.7 SE 6 9 3 5 1022.5 1022.5 1.8
28/02:30am 8.2 5.4 6.8 91 0.7 ENE 11 13 6 7 1022.7 1022.7 1.8
28/02:05am 8.0 5.1 6.6 91 0.7 NE 11 13 6 7 1022.7 1022.7 1.8
28/02:00am 8.0 5.1 6.6 91 0.6 NE 11 13 6 7 1022.8 1022.8 1.8
28/01:59am 8.0 5.1 6.6 91 0.7 NE 11 13 6 7 1022.8 1022.8 1.8
28/01:41am 7.3 3.9 5.9 91 0.6 NE 13 15 7 8 1022.7 1022.7 1.8
28/01:30am 7.0 3.5 5.5 90 0.7 NE 13 15 7 8 1022.7 1022.7 1.8
28/01:29am 6.9 3.4 5.4 90 0.7 NE 13 15 7 8 1022.7 1022.7 1.8
28/01:00am 8.3 5.9 6.8 90 0.7 N 9 11 5 6 1022.9 1022.9 1.8
28/12:48am 8.2 5.7 6.7 90 0.7 N 9 11 5 6 1022.9 1022.9 1.6
28/12:44am 8.1 5.6 6.6 90 0.7 N 9 11 5 6 1022.9 1022.9 1.6
28/12:34am 7.6 5.0 6.1 90 0.7 N 9 11 5 6 1023.1 1023.1 1.6
28/12:30am 7.6 5.0 6.1 90 0.7 N 9 11 5 6 1023.0 1023.0 1.6
28/12:00am 8.7 6.3 7.2 90 0.7 N 9 13 5 7 1023.0 1023.0 1.6
 
Date/Time
EST
Temp
°C
App
Temp
°C
Dew
Point
Rel
Hum
%
Delta-T
°C
Wind Press
QNH
hPa
Press
MSL
hPa
Rain
since 9 am
mm
Dir
 
Spd
km/h
Gust
km/h
Spd
kts
Gust
kts
27/11:56pm 9.0 6.3 7.5 90 0.7 NNW 11 13 6 7 1023.0 1023.0 1.6
27/11:54pm 9.3 6.7 7.7 90 0.8 NNW 11 13 6 7 1023.0 1023.0 1.6
27/11:36pm 8.9 6.6 7.5 91 0.7 SW 9 17 5 9 1023.2 1023.2 1.6
27/11:31pm 8.2 5.7 6.7 90 0.7 SSW 9 13 5 7 1023.3 1023.3 1.6
27/11:30pm 8.0 5.5 6.5 90 0.7 SSW 9 13 5 7 1023.3 1023.3 1.6
27/11:00pm 8.2 7.4 6.5 89 0.8 CALM 0 4 0 2 1022.9 1022.9 1.6
27/10:30pm 7.8 4.1 6.1 89 0.8 ENE 15 17 8 9 1022.7 1022.7 1.6
27/10:00pm 9.3 6.3 7.7 90 0.8 ENE 13 15 7 8 1022.7 1022.7 1.6
27/09:30pm 8.9 5.4 7.2 89 0.8 ENE 15 17 8 9 1022.7 1022.7 1.6
27/09:00pm 9.2 6.2 7.6 90 0.8 NE 13 13 7 7 1022.7 1022.7 1.6
27/08:30pm 9.1 6.8 7.4 89 0.8 ENE 9 11 5 6 1022.5 1022.5 1.6
27/08:00pm 10.3 8.3 8.6 89 0.8 ENE 9 9 5 5 1022.2 1022.2 1.4
27/07:30pm 10.3 8.6 8.4 88 0.9 NE 7 7 4 4 1022.0 1022.0 1.4
27/07:00pm 10.8 8.9 8.9 88 0.9 NNE 9 9 5 5 1021.5 1021.5 1.4
27/06:30pm 11.5 9.3 9.4 87 1.1 NNE 11 11 6 6 1021.3 1021.3 1.4
27/06:00pm 12.3 11.0 10.0 86 1.2 N 7 9 4 5 1021.2 1021.2 1.4
27/05:30pm 12.8 11.2 10.3 85 1.3 NNE 9 9 5 5 1021.0 1021.0 1.4
27/05:00pm 13.2 11.3 10.6 84 1.4 N 11 13 6 7 1020.7 1020.8 1.4
27/04:30pm 13.3 12.4 10.7 84 1.4 N 6 9 3 5 1020.5 1020.6 1.4
27/04:00pm 13.4 11.9 10.4 82 1.6 N 9 11 5 6 1020.4 1020.5 1.4
27/03:30pm 13.6 12.4 10.4 81 1.7 N 7 9 4 5 1020.5 1020.6 1.4
27/03:00pm 14.0 12.5 10.4 79 1.9 NNW 9 11 5 6 1020.6 1020.7 1.4
27/02:30pm 13.8 11.5 10.6 81 1.7 N 13 13 7 7 1020.9 1020.9 1.4
27/02:00pm 13.8 12.0 10.8 82 1.6 N 11 15 6 8 1020.9 1020.9 1.4
27/01:52pm 13.7 11.9 10.9 83 1.5 NNW 11 15 6 8 1021.0 1021.0 1.4
27/01:30pm 13.6 11.5 11.1 85 1.3 NNW 13 15 7 8 1021.3 1021.3 1.4
27/01:03pm 13.5 11.0 11.2 86 1.2 N 15 20 8 11 1021.7 1021.7 1.4
27/01:00pm 13.4 10.5 11.1 86 1.2 N 17 20 9 11 1021.8 1021.8 1.4
27/12:30pm 12.7 9.7 10.6 87 1.1 N 17 20 9 11 1022.2 1022.2 1.4
27/12:00pm 12.7 9.6 10.4 86 1.2 N 17 26 9 14 1022.7 1022.7 1.2
27/11:30am 12.7 8.6 10.2 85 1.3 N 22 28 12 15 1023.3 1023.3 0.8
27/11:00am 13.3 9.3 10.3 82 1.6 N 22 30 12 16 1023.4 1023.5 0.0
27/10:30am 14.1 10.4 9.5 74 2.4 NNW 19 26 10 14 1023.1 1023.1 0.0
27/10:00am 14.5 12.2 10.3 76 2.2 NNW 13 17 7 9 1022.8 1022.8 0.0
27/09:30am 14.2 11.6 9.2 72 2.6 NNW 13 15 7 8 1022.8 1022.8 0.0
27/09:00am 14.6 12.4 9.4 71 2.7 N 11 15 6 8 1022.4 1022.4 0.0
27/08:30am 14.1 12.3 9.5 74 2.4 N 9 13 5 7 1022.6 1022.6 0.0
27/08:00am 13.6 11.8 9.6 77 2.1 N 9 15 5 8 1022.2 1022.2 0.0
27/07:30am 12.9 11.3 10.1 83 1.5 N 9 13 5 7 1022.3 1022.3 0.0
27/07:00am 11.8 10.6 9.4 85 1.2 N 6 7 3 4 1021.9 1021.9 0.0
27/06:30am 11.5 10.0 9.1 85 1.2 N 7 9 4 5 1021.8 1021.8 0.0
27/06:00am 11.8 10.0 9.5 86 1.2 NNE 9 11 5 6 1021.3 1021.3 0.0
27/05:30am 11.6 9.5 9.7 88 1.0 NE 11 13 6 7 1020.9 1020.9 0.0
27/05:00am 11.1 9.7 9.4 89 0.9 NNE 7 9 4 5 1020.9 1020.9 0.0
27/04:30am 10.6 10.4 8.9 89 0.9 CALM 0 0 0 0 1021.2 1021.2 0.0
27/04:00am 10.5 8.9 8.6 88 0.9 NE 7 9 4 5 1021.1 1021.1 0.0
27/03:30am 10.5 10.2 8.6 88 0.9 CALM 0 0 0 0 1021.3 1021.3 0.0
27/03:00am 10.6 10.3 8.7 88 0.9 CALM 0 7 0 4 1021.2 1021.2 0.0
27/02:30am 10.9 7.8 9.0 88 1.0 NE 15 17 8 9 1021.2 1021.2 0.0
27/02:00am 10.6 9.2 8.7 88 0.9 NNE 6 7 3 4 1021.6 1021.6 0.0
27/01:30am 10.7 9.0 8.5 86 1.1 ENE 7 9 4 5 1021.3 1021.3 0.0
27/01:00am 10.8 10.4 8.2 84 1.3 CALM 0 0 0 0 1021.7 1021.7 0.0
27/12:30am 11.4 9.8 8.6 83 1.4 SE 7 9 4 5 1021.9 1021.9 0.0
27/12:00am 11.4 9.4 8.6 83 1.4 E 9 11 5 6 1021.4 1021.4 0.0
 
Date/Time
EST
Temp
°C
App
Temp
°C
Dew
Point
Rel
Hum
%
Delta-T
°C
Wind Press
QNH
hPa
Press
MSL
hPa
Rain
since 9 am
mm
Dir
 
Spd
km/h
Gust
km/h
Spd
kts
Gust
kts
26/11:30pm 11.4 9.8 8.6 83 1.4 E 7 9 4 5 1022.1 1022.1 0.0
26/11:00pm 11.5 9.8 8.5 82 1.5 E 7 9 4 5 1022.5 1022.5 0.0
26/10:30pm 11.9 10.3 8.9 82 1.5 S 7 9 4 5 1022.9 1022.9 0.0
26/10:00pm 11.9 10.3 8.7 81 1.6 SSE 7 9 4 5 1022.7 1022.7 0.0
26/09:30pm 12.4 10.4 8.7 78 1.9 SW 9 11 5 6 1022.9 1022.9 0.0
26/09:00pm 12.6 10.7 9.1 79 1.8 SW 9 15 5 8 1022.9 1022.9 0.0
26/08:30pm 12.8 11.0 9.6 81 1.6 WSW 9 13 5 7 1023.1 1023.1 0.0
26/08:00pm 13.0 11.9 9.8 81 1.7 WSW 6 9 3 5 1022.4 1022.4 0.0
26/07:30pm 12.7 11.3 9.5 81 1.6 WNW 7 9 4 5 1022.7 1022.7 0.0
26/07:00pm 12.6 10.5 9.6 82 1.5 NNW 11 13 6 7 1022.5 1022.5 0.0
26/06:30pm 13.4 11.3 9.6 78 2.0 NNW 11 13 6 7 1022.5 1022.5 0.0
26/06:00pm 13.9 11.4 9.7 76 2.2 NW 13 15 7 8 1022.3 1022.3 0.0
26/05:30pm 14.8 12.2 9.4 70 2.8 WNW 13 15 7 8 1021.6 1021.6 0.0
26/05:00pm 16.3 13.8 9.7 65 3.5 WNW 13 17 7 9 1021.4 1021.4 0.0
26/04:30pm 16.7 14.2 9.6 63 3.8 WNW 13 17 7 9 1020.6 1020.7 0.0
26/04:00pm 16.9 13.9 9.1 60 4.1 W 15 20 8 11 1020.6 1020.7 0.0
26/03:30pm 18.0 15.4 9.4 57 4.6 WNW 13 20 7 11 1020.4 1020.5 0.0
26/03:00pm 18.2 15.6 9.5 57 4.6 W 13 19 7 10 1020.2 1020.3 0.0
26/02:30pm 17.8 15.2 9.2 57 4.5 NW 13 20 7 11 1020.5 1020.6 0.0
26/02:00pm 16.7 13.9 8.7 59 4.1 NW 13 19 7 10 1020.9 1020.9 0.0
26/01:30pm 16.4 14.7 8.4 59 4.1 NW 7 17 4 9 1020.7 1020.8 0.0
26/01:00pm 16.4 13.6 8.6 60 4.0 NW 13 20 7 11 1021.3 1021.3 0.0
26/12:30pm 16.3 14.0 9.0 62 3.8 WNW 11 19 6 10 1021.8 1021.8 0.0
26/12:00pm 15.8 12.3 8.8 63 3.6 NNW 17 24 9 13 1022.6 1022.6 0.0
26/11:30am 15.5 12.3 8.5 63 3.6 NW 15 24 8 13 1023.1 1023.1 0.0
26/11:00am 15.3 12.4 8.1 62 3.6 WNW 13 20 7 11 1023.3 1023.3 0.0
26/10:30am 15.0 12.6 8.5 65 3.3 WNW 11 19 6 10 1023.5 1023.6 0.0
26/10:00am 13.5 11.2 7.5 67 3.0 WNW 9 15 5 8 1023.3 1023.3 0.0
26/09:30am 13.9 11.6 7.4 65 3.2 NW 9 15 5 8 1023.6 1023.7 0.0
26/09:00am 13.8 11.7 8.2 69 2.8 NNW 9 15 5 8 1023.3 1023.3 0.2
26/08:30am 12.5 11.2 9.1 80 1.7 N 6 9 3 5 1023.2 1023.2 0.2
26/08:00am 11.3 9.8 9.0 86 1.2 N 7 11 4 6 1023.4 1023.5 0.2
26/07:30am 10.6 9.0 8.7 88 0.9 NNW 7 7 4 4 1023.0 1023.0 0.2
26/07:00am 10.2 8.5 8.5 89 0.8 N 7 9 4 5 1022.7 1022.7 0.2
26/06:30am 10.2 8.5 8.5 89 0.8 NNW 7 9 4 5 1022.6 1022.6 0.2
26/06:00am 10.1 8.4 8.4 89 0.8 N 7 9 4 5 1022.2 1022.2 0.2
26/05:30am 10.0 8.3 8.3 89 0.8 N 7 9 4 5 1021.9 1021.9 0.2
26/05:00am 10.0 9.6 8.3 89 0.8 CALM 0 0 0 0 1021.7 1021.7 0.2
26/04:30am 10.0 9.6 8.3 89 0.8 CALM 0 2 0 1 1021.4 1021.4 0.2
26/04:00am 10.0 7.9 8.3 89 0.8 NNW 9 15 5 8 1021.5 1021.5 0.2
26/03:30am 10.1 7.6 8.4 89 0.8 NNW 11 15 6 8 1021.4 1021.4 0.2
26/03:00am 10.1 8.6 8.4 89 0.8 NNE 6 7 3 4 1021.4 1021.4 0.2

Other Formats:

Comma delimited format used in spreadsheet applications
http://www.bom.gov.au/fwo/IDN60801/IDN60801.95734.axf

JavaScript Object Notation format (JSON) in row-major order
http://www.bom.gov.au/fwo/IDN60801/IDN60801.95734.json